Portada
METAR-TAF:

METAR-TAF

Aeroports :

Taixkent, Uzbekistan

latitud: 41-16N, longitud: 069-16E, altitud: 489 m

Observació

L'informe es va fer fa 35 minuts, a les 16:00 UTC
Vent 2 kt del Sud/Sud-Oest
Temperatura 1°C
Humitat 80%
Pressió 1028 hPa
Visibilitat: 4000 m
boirina

METAR: UTTT 251600Z 21002KT 4000 BR NSC 01/M02 Q1028 R08R/CLRD70 NOSIG

Hora: 21:35 (16:35 UTC)

Pronòstic

L'informe es va fer fa 5 hores i 35 minuts, a les 11:00 UTC
Pronòstic vàlid del 25 a les 12 UTC al 26 a les 12 UTC
Vent 8 kt del Est/Nord-Est
Visibilitat: 7000 m
Temporalment
l' 25 a les 18 UTC al 26 a les 04 UTC
Vent 2 kt amb direcció variable
Visibilitat: 1500 m
boirina

TAF: UTTT 251100Z 2512/2612 07008KT 7000 NSC TEMPO 2518/2604 VRB02KT 1500 BR

Observacions i pronòstics meteorològics de més de 4000 aeroports (METAR i TAF).

Les estacions disponibles són els punts grocs i vermells al mapa.

Posi el ratolí al punt desitjat per veure el nom de l'estació.

Feu clic per veure les observacions i els pronòstics meteorològics.

Per canviar el mapa: feu clic els botons verds amb una creu de color negre per apropar; al botó verd amb un guió per allunyar la imatge; o en les fletxes verdes per a mapes adjacents.


METAR-TAF: